createdAt,value
2022-12-04T00:01:18.975Z,60.20
2022-12-04T00:03:45.963Z,60.20
2022-12-04T00:06:15.722Z,60.10
2022-12-04T00:08:43.280Z,60.10
2022-12-04T00:11:11.439Z,60.10
2022-12-04T00:13:39.223Z,60.20
2022-12-04T00:16:12.516Z,60.10
2022-12-04T00:18:39.743Z,60.10
2022-12-04T00:21:07.869Z,60.00
2022-12-04T00:23:35.723Z,60.10
2022-12-04T00:26:11.520Z,60.00
2022-12-04T00:28:38.526Z,60.10
2022-12-04T00:31:06.934Z,59.90
2022-12-04T00:33:35.395Z,60.00
2022-12-04T00:36:05.339Z,59.90
2022-12-04T00:38:32.112Z,59.90
2022-12-04T00:41:00.659Z,59.90
2022-12-04T00:43:28.144Z,59.90
2022-12-04T00:45:54.824Z,59.90
2022-12-04T00:48:21.610Z,59.90
2022-12-04T00:50:48.211Z,59.30
2022-12-04T00:53:14.839Z,59.90
2022-12-04T00:55:43.389Z,59.80
2022-12-04T00:58:10.501Z,59.80
2022-12-04T01:00:39.007Z,59.80
2022-12-04T01:03:07.659Z,59.80
2022-12-04T01:05:41.988Z,59.80
2022-12-04T01:08:09.255Z,59.80
2022-12-04T01:10:41.549Z,59.30
2022-12-04T01:13:08.772Z,59.90
2022-12-04T01:15:40.289Z,59.80
2022-12-04T01:18:07.389Z,59.80
2022-12-04T01:20:33.995Z,59.80
2022-12-04T01:23:00.614Z,59.80
2022-12-04T01:25:27.221Z,59.80
2022-12-04T01:27:53.882Z,59.70
2022-12-04T01:30:20.594Z,59.70
2022-12-04T01:32:47.413Z,59.80
2022-12-04T01:35:14.207Z,59.70
2022-12-04T01:37:40.899Z,59.70
2022-12-04T01:40:12.436Z,59.70
2022-12-04T01:42:39.019Z,59.70
2022-12-04T01:45:39.021Z,59.70
2022-12-04T01:48:24.796Z,59.70
2022-12-04T01:50:58.375Z,59.70
2022-12-04T01:53:25.443Z,59.70
2022-12-04T01:55:52.431Z,59.70
2022-12-04T01:58:24.583Z,59.70
2022-12-04T02:00:58.214Z,59.70
2022-12-04T02:03:25.123Z,59.70
2022-12-04T02:05:51.761Z,59.70
2022-12-04T02:08:18.685Z,59.70
2022-12-04T02:11:12.784Z,59.70
2022-12-04T02:13:49.004Z,59.70
2022-12-04T02:16:25.668Z,59.70
2022-12-04T02:18:55.292Z,59.20
2022-12-04T02:21:36.137Z,59.70
2022-12-04T02:24:09.188Z,59.60
2022-12-04T02:26:48.894Z,59.60
2022-12-04T02:29:49.902Z,59.60
2022-12-04T02:32:22.146Z,59.60
2022-12-04T02:35:03.913Z,59.60
2022-12-04T02:37:44.615Z,59.60
2022-12-04T02:40:23.066Z,59.50
2022-12-04T02:42:57.914Z,59.60
2022-12-04T02:45:31.034Z,59.50
2022-12-04T02:48:00.472Z,59.40
2022-12-04T02:50:29.338Z,59.50
2022-12-04T02:53:03.187Z,59.40
2022-12-04T02:55:34.773Z,59.40
2022-12-04T02:58:07.318Z,59.50
2022-12-04T03:00:35.352Z,59.40
2022-12-04T03:03:10.970Z,59.50
2022-12-04T03:05:47.695Z,59.40
2022-12-04T03:08:20.079Z,59.30
2022-12-04T03:10:52.851Z,59.30
2022-12-04T03:13:26.120Z,59.40
2022-12-04T03:16:15.504Z,59.30
2022-12-04T03:18:43.534Z,59.20
2022-12-04T03:21:19.949Z,59.30
2022-12-04T03:24:01.468Z,59.30
2022-12-04T03:26:37.876Z,59.20
2022-12-04T03:29:15.683Z,59.20
2022-12-04T03:31:48.813Z,59.20
2022-12-04T03:34:26.667Z,59.20
2022-12-04T03:36:58.762Z,59.20
2022-12-04T03:39:34.727Z,59.20
2022-12-04T03:42:19.749Z,59.20
2022-12-04T03:44:48.854Z,59.10
2022-12-04T03:47:20.714Z,59.20
2022-12-04T03:50:12.332Z,59.20
2022-12-04T03:52:57.094Z,59.20
2022-12-04T03:55:28.706Z,59.00
2022-12-04T03:58:00.947Z,59.00
2022-12-04T04:00:29.105Z,59.00
2022-12-04T04:03:09.277Z,59.00
2022-12-04T04:05:38.120Z,59.00
2022-12-04T04:08:26.108Z,59.00
2022-12-04T04:10:56.354Z,58.90
2022-12-04T04:13:48.204Z,59.00
2022-12-04T04:16:36.332Z,58.90
2022-12-04T04:19:21.842Z,58.90
2022-12-04T04:22:09.694Z,59.00
2022-12-04T04:24:44.449Z,58.90
2022-12-04T04:27:11.471Z,58.80
2022-12-04T04:29:38.715Z,58.90
2022-12-04T04:32:22.301Z,58.90
2022-12-04T04:35:06.116Z,58.90
2022-12-04T04:37:48.531Z,58.90
2022-12-04T04:40:21.950Z,58.80
2022-12-04T04:43:07.430Z,58.80
2022-12-04T04:45:41.186Z,58.70
2022-12-04T04:48:07.739Z,58.70
2022-12-04T04:50:35.546Z,58.70
2022-12-04T04:53:10.705Z,58.70
2022-12-04T04:55:38.283Z,58.70
2022-12-04T04:58:13.549Z,58.60
2022-12-04T05:00:44.290Z,58.60
2022-12-04T05:03:11.087Z,58.60
2022-12-04T05:05:37.787Z,58.60
2022-12-04T05:08:04.567Z,58.60
2022-12-04T05:10:31.271Z,58.60
2022-12-04T05:12:57.847Z,58.60
2022-12-04T05:15:24.459Z,58.60
2022-12-04T05:17:51.149Z,58.60
2022-12-04T05:20:17.854Z,58.50
2022-12-04T05:22:44.583Z,58.50
2022-12-04T05:25:11.210Z,59.00
2022-12-04T05:27:37.928Z,58.50
2022-12-04T05:30:05.316Z,57.90
2022-12-04T05:32:31.927Z,58.40
2022-12-04T05:34:58.943Z,58.30
2022-12-04T05:37:26.071Z,58.30
2022-12-04T05:39:53.162Z,58.30
2022-12-04T05:42:20.199Z,58.30
2022-12-04T05:44:48.878Z,58.30
2022-12-04T05:47:15.940Z,58.30
2022-12-04T05:49:42.523Z,58.30
2022-12-04T05:52:10.461Z,58.30
2022-12-04T05:54:37.188Z,58.30
2022-12-04T05:57:04.083Z,58.40
2022-12-04T05:59:30.751Z,58.30
2022-12-04T06:01:57.405Z,58.40
2022-12-04T06:04:24.126Z,58.40
2022-12-04T06:06:50.755Z,58.40
2022-12-04T06:09:17.351Z,58.40
2022-12-04T06:11:43.965Z,57.90
2022-12-04T06:14:14.052Z,58.10
2022-12-04T06:16:43.699Z,58.40
2022-12-04T06:19:16.875Z,58.50
2022-12-04T06:21:45.808Z,58.50
2022-12-04T06:24:18.908Z,58.50
2022-12-04T06:27:11.254Z,58.50
2022-12-04T06:29:33.346Z,58.40
2022-12-04T06:32:00.135Z,58.50
2022-12-04T06:34:26.907Z,58.40
2022-12-04T06:36:53.519Z,58.50
2022-12-04T06:39:20.218Z,58.50
2022-12-04T06:41:49.514Z,58.50
2022-12-04T06:44:16.511Z,58.40
2022-12-04T06:46:46.856Z,58.40
2022-12-04T06:49:14.071Z,58.50
2022-12-04T06:51:40.782Z,58.50
2022-12-04T06:54:07.850Z,58.50
2022-12-04T06:56:34.750Z,58.50
2022-12-04T06:59:03.593Z,58.00
2022-12-04T07:01:32.265Z,58.50
2022-12-04T07:04:01.110Z,58.50
2022-12-04T07:06:45.584Z,58.50
2022-12-04T07:09:15.433Z,58.60
2022-12-04T07:11:43.734Z,58.50
2022-12-04T07:14:11.627Z,58.40
2022-12-04T07:16:41.949Z,58.60
2022-12-04T07:19:13.779Z,58.50
2022-12-04T07:21:41.081Z,59.20
2022-12-04T07:24:07.840Z,58.50
2022-12-04T07:26:34.531Z,58.60
2022-12-04T07:29:01.135Z,58.50
2022-12-04T07:31:29.461Z,58.50
2022-12-04T07:33:57.032Z,58.50
2022-12-04T07:36:24.698Z,58.60
2022-12-04T07:38:52.261Z,58.60
2022-12-04T07:41:19.555Z,58.50
2022-12-04T07:43:46.237Z,58.60
2022-12-04T07:46:19.161Z,59.10
2022-12-04T07:48:45.902Z,58.60
2022-12-04T07:51:15.420Z,58.60
2022-12-04T07:53:43.061Z,58.60
2022-12-04T07:56:10.949Z,58.70
2022-12-04T07:58:38.308Z,58.50
2022-12-04T08:01:24.102Z,58.60
2022-12-04T08:03:52.828Z,58.60
2022-12-04T08:06:21.814Z,58.60
2022-12-04T08:08:49.366Z,58.50
2022-12-04T08:11:18.670Z,58.50
2022-12-04T08:13:45.729Z,58.60
2022-12-04T08:16:13.061Z,58.70
2022-12-04T08:18:40.277Z,58.60
2022-12-04T08:21:12.306Z,58.60
2022-12-04T08:23:40.827Z,58.60
2022-12-04T08:26:08.475Z,58.60
2022-12-04T08:28:35.454Z,58.50
2022-12-04T08:31:14.593Z,58.60
2022-12-04T08:33:42.062Z,58.60
2022-12-04T08:36:10.665Z,58.50
2022-12-04T08:38:37.608Z,58.50
2022-12-04T08:41:07.435Z,58.50
2022-12-04T08:43:34.368Z,58.50
2022-12-04T08:46:05.354Z,58.50
2022-12-04T08:48:32.775Z,58.50
2022-12-04T08:50:59.667Z,58.10
2022-12-04T08:53:26.562Z,58.50
2022-12-04T08:55:53.229Z,58.40
2022-12-04T08:58:20.081Z,58.40
2022-12-04T09:00:47.565Z,58.50
2022-12-04T09:03:16.655Z,58.40
2022-12-04T09:05:47.832Z,58.40
2022-12-04T09:08:16.070Z,58.40
2022-12-04T09:10:43.297Z,58.40
2022-12-04T09:13:10.295Z,58.30
2022-12-04T09:15:40.576Z,58.30
2022-12-04T09:18:08.338Z,58.30
2022-12-04T09:20:35.495Z,58.30
2022-12-04T09:23:04.956Z,58.20
2022-12-04T09:25:35.120Z,58.10
2022-12-04T09:28:01.899Z,58.90
2022-12-04T09:30:28.625Z,58.30
2022-12-04T09:32:55.270Z,58.40
2022-12-04T09:35:21.839Z,58.40
2022-12-04T09:37:48.438Z,58.40
2022-12-04T09:40:35.187Z,58.00
2022-12-04T09:43:32.047Z,59.00
2022-12-04T09:46:07.931Z,58.60
2022-12-04T09:48:38.289Z,58.60
2022-12-04T09:51:06.782Z,58.60
2022-12-04T09:53:47.307Z,58.60
2022-12-04T09:56:19.640Z,58.70
2022-12-04T09:59:08.958Z,58.70
2022-12-04T10:01:51.164Z,58.70
2022-12-04T10:04:18.718Z,58.70
2022-12-04T10:07:16.930Z,58.70
2022-12-04T10:09:54.788Z,58.70
2022-12-04T10:12:36.265Z,58.70
2022-12-04T10:15:06.028Z,58.70
2022-12-04T10:17:48.313Z,59.00
2022-12-04T10:20:44.557Z,58.40
2022-12-04T10:23:31.645Z,59.00
2022-12-04T10:26:00.263Z,58.90
2022-12-04T10:28:29.883Z,58.90
2022-12-04T10:31:00.594Z,58.90
2022-12-04T10:33:36.836Z,58.80
2022-12-04T10:36:03.991Z,58.90
2022-12-04T10:38:45.474Z,59.10
2022-12-04T10:41:26.322Z,59.10
2022-12-04T10:43:52.990Z,58.90
2022-12-04T10:46:28.607Z,59.10
2022-12-04T10:48:59.859Z,59.10
2022-12-04T10:51:27.087Z,59.10
2022-12-04T10:53:56.644Z,59.20
2022-12-04T10:56:25.867Z,59.70
2022-12-04T10:59:00.928Z,59.90
2022-12-04T11:01:29.561Z,59.90
2022-12-04T11:03:59.225Z,60.30
2022-12-04T11:06:27.037Z,60.40
2022-12-04T11:08:58.110Z,59.90
2022-12-04T11:11:29.212Z,60.40
2022-12-04T11:14:16.576Z,59.70
2022-12-04T11:17:04.420Z,59.70
2022-12-04T11:19:34.633Z,59.70
2022-12-04T11:22:13.440Z,59.70
2022-12-04T11:24:42.659Z,59.70
2022-12-04T11:27:21.307Z,59.70
2022-12-04T11:29:48.670Z,59.60
2022-12-04T11:32:29.060Z,59.70
2022-12-04T11:35:01.261Z,59.70
2022-12-04T11:37:32.317Z,59.70
2022-12-04T11:39:59.379Z,59.40
2022-12-04T11:42:29.310Z,59.90
2022-12-04T11:44:57.872Z,59.80
2022-12-04T11:47:30.808Z,59.90
2022-12-04T11:50:11.283Z,60.00
2022-12-04T11:52:51.980Z,60.10
2022-12-04T11:55:29.150Z,59.90
2022-12-04T11:58:27.146Z,60.80
2022-12-04T12:01:24.606Z,60.10
2022-12-04T12:04:37.266Z,60.20
2022-12-04T12:07:03.817Z,60.20
2022-12-04T12:10:03.410Z,60.10
2022-12-04T12:12:47.455Z,60.20
2022-12-04T12:15:35.407Z,60.30
2022-12-04T12:18:23.405Z,60.60
2022-12-04T12:21:09.395Z,60.60
2022-12-04T12:24:17.848Z,60.60
2022-12-04T12:27:12.549Z,60.60
2022-12-04T12:29:55.725Z,60.70
2022-12-04T12:32:48.850Z,61.00
2022-12-04T12:35:24.603Z,60.70
2022-12-04T12:37:59.406Z,60.60
2022-12-04T12:40:50.853Z,60.50
2022-12-04T12:43:30.853Z,61.00
2022-12-04T12:46:14.722Z,61.30
2022-12-04T12:48:44.331Z,61.20
2022-12-04T12:51:29.967Z,61.20
2022-12-04T12:54:15.070Z,61.20
2022-12-04T12:56:56.945Z,61.20
2022-12-04T12:59:27.204Z,60.70
2022-12-04T13:02:00.840Z,61.30
2022-12-04T13:04:38.328Z,61.30
2022-12-04T13:07:40.269Z,61.50
2022-12-04T13:10:28.256Z,61.00
2022-12-04T13:13:08.592Z,61.60
2022-12-04T13:16:15.572Z,61.70
2022-12-04T13:18:50.766Z,61.60
2022-12-04T13:21:35.592Z,61.70
2022-12-04T13:24:23.219Z,61.80
2022-12-04T13:27:15.255Z,61.80
2022-12-04T13:30:20.058Z,61.90
2022-12-04T13:33:04.167Z,61.60
2022-12-04T13:36:01.352Z,61.60
2022-12-04T13:38:33.867Z,61.60
2022-12-04T13:41:03.666Z,61.20
2022-12-04T13:43:44.559Z,61.80
2022-12-04T13:46:50.380Z,61.80
2022-12-04T13:49:29.373Z,61.80
2022-12-04T13:51:57.251Z,62.00
2022-12-04T13:54:56.222Z,61.80
2022-12-04T13:57:22.981Z,61.80
2022-12-04T13:59:50.255Z,61.80
2022-12-04T14:02:25.490Z,62.00
2022-12-04T14:05:07.491Z,62.00
2022-12-04T14:07:36.961Z,62.00
2022-12-04T14:10:29.116Z,61.90
2022-12-04T14:13:21.541Z,61.70
2022-12-04T14:15:48.627Z,61.80
2022-12-04T14:18:30.083Z,61.80
2022-12-04T14:21:04.468Z,61.10
2022-12-04T14:23:39.615Z,61.80
2022-12-04T14:26:29.263Z,61.70
2022-12-04T14:29:27.613Z,61.70
2022-12-04T14:31:58.004Z,61.10
2022-12-04T14:34:31.994Z,61.50
2022-12-04T14:36:59.603Z,61.60
2022-12-04T14:39:37.146Z,61.70
2022-12-04T14:42:22.355Z,61.70
2022-12-04T14:44:57.466Z,61.60
2022-12-04T14:47:44.251Z,61.60
2022-12-04T14:50:20.706Z,61.60
2022-12-04T14:52:59.317Z,61.60
2022-12-04T14:56:07.329Z,61.60
2022-12-04T14:58:38.320Z,61.60
2022-12-04T15:01:21.671Z,61.60
2022-12-04T15:03:55.930Z,61.60
2022-12-04T15:06:26.727Z,61.70
2022-12-04T15:09:14.408Z,61.70
2022-12-04T15:12:09.341Z,61.90
2022-12-04T15:14:47.048Z,62.00
2022-12-04T15:17:16.117Z,62.20
2022-12-04T15:19:43.475Z,62.00
2022-12-04T15:22:30.396Z,62.00
2022-12-04T15:24:57.410Z,62.00
2022-12-04T15:27:32.006Z,62.00
2022-12-04T15:30:00.842Z,62.00
2022-12-04T15:32:30.427Z,62.20
2022-12-04T15:35:09.107Z,62.00
2022-12-04T15:37:36.278Z,62.00
2022-12-04T15:40:07.680Z,62.10
2022-12-04T15:42:34.330Z,62.20
2022-12-04T15:45:09.924Z,62.10
2022-12-04T15:47:42.647Z,62.10
2022-12-04T15:50:14.808Z,62.10
2022-12-04T15:53:20.544Z,62.10
2022-12-04T15:55:53.053Z,62.30
2022-12-04T15:58:30.341Z,62.10
2022-12-04T16:01:03.233Z,62.20
2022-12-04T16:03:34.340Z,62.00
2022-12-04T16:06:05.324Z,62.00
2022-12-04T16:08:37.357Z,62.00
2022-12-04T16:11:22.380Z,62.00
2022-12-04T16:14:01.472Z,62.20
2022-12-04T16:16:28.655Z,61.90
2022-12-04T16:18:55.380Z,62.10
2022-12-04T16:21:29.171Z,62.20
2022-12-04T16:24:04.645Z,62.20
2022-12-04T16:26:31.243Z,62.10
2022-12-04T16:28:59.105Z,62.20
2022-12-04T16:31:26.519Z,61.60
2022-12-04T16:33:53.327Z,62.30
2022-12-04T16:36:20.008Z,62.20
2022-12-04T16:38:46.805Z,62.30
2022-12-04T16:41:15.086Z,62.30
2022-12-04T16:43:42.040Z,62.20
2022-12-04T16:46:15.010Z,62.90
2022-12-04T16:48:42.887Z,62.40
2022-12-04T16:51:21.950Z,62.40
2022-12-04T16:53:51.708Z,62.60
2022-12-04T16:56:19.514Z,62.50
2022-12-04T16:58:46.393Z,62.40
2022-12-04T17:01:20.600Z,62.50
2022-12-04T17:03:47.682Z,63.10
2022-12-04T17:06:14.537Z,63.40
2022-12-04T17:08:41.148Z,62.90
2022-12-04T17:11:12.072Z,63.30
2022-12-04T17:13:38.713Z,63.40
2022-12-04T17:16:05.453Z,63.30
2022-12-04T17:18:37.474Z,63.40
2022-12-04T17:21:08.536Z,63.00
2022-12-04T17:23:35.269Z,63.40
2022-12-04T17:26:07.477Z,63.20
2022-12-04T17:28:34.255Z,63.00
2022-12-04T17:31:02.427Z,62.70
2022-12-04T17:33:29.075Z,63.70
2022-12-04T17:35:55.908Z,63.90
2022-12-04T17:38:22.515Z,63.90
2022-12-04T17:41:03.053Z,63.90
2022-12-04T17:43:31.165Z,64.00
2022-12-04T17:45:58.093Z,63.80
2022-12-04T17:48:25.457Z,63.40
2022-12-04T17:51:07.775Z,62.70
2022-12-04T17:53:34.844Z,63.50
2022-12-04T17:56:14.593Z,63.40
2022-12-04T17:58:41.167Z,63.40
2022-12-04T18:01:20.239Z,63.40
2022-12-04T18:03:57.997Z,63.20
2022-12-04T18:06:27.535Z,63.30
2022-12-04T18:08:54.719Z,63.10
2022-12-04T18:11:23.420Z,62.90
2022-12-04T18:13:54.802Z,62.90
2022-12-04T18:16:22.042Z,62.90
2022-12-04T18:18:50.625Z,63.10
2022-12-04T18:21:17.221Z,63.00
2022-12-04T18:23:47.082Z,62.80
2022-12-04T18:26:16.140Z,62.70
2022-12-04T18:28:43.453Z,62.70
2022-12-04T18:31:10.635Z,62.70
2022-12-04T18:33:38.652Z,62.70
2022-12-04T18:36:06.297Z,62.70
2022-12-04T18:38:32.998Z,62.70
2022-12-04T18:41:04.796Z,62.20
2022-12-04T18:43:36.626Z,62.90
2022-12-04T18:46:07.573Z,62.40
2022-12-04T18:48:35.877Z,62.50
2022-12-04T18:51:13.086Z,62.60
2022-12-04T18:53:39.765Z,62.60
2022-12-04T18:56:07.232Z,62.70
2022-12-04T18:58:33.866Z,62.60
2022-12-04T19:01:14.321Z,62.60
2022-12-04T19:03:41.353Z,62.70
2022-12-04T19:06:08.637Z,62.70
2022-12-04T19:08:40.075Z,62.70
2022-12-04T19:11:12.851Z,62.80
2022-12-04T19:13:40.011Z,62.80
2022-12-04T19:16:12.632Z,62.70
2022-12-04T19:18:39.451Z,62.70
2022-12-04T19:21:06.627Z,62.80
2022-12-04T19:23:33.633Z,62.70
2022-12-04T19:26:01.466Z,62.70
2022-12-04T19:28:28.943Z,62.70
2022-12-04T19:30:56.041Z,62.70
2022-12-04T19:33:23.789Z,62.80
2022-12-04T19:36:04.861Z,62.70
2022-12-04T19:38:33.603Z,62.70
2022-12-04T19:41:10.230Z,62.80
2022-12-04T19:43:42.071Z,62.80
2022-12-04T19:46:10.760Z,62.80
2022-12-04T19:48:38.250Z,62.80
2022-12-04T19:51:11.081Z,62.80
2022-12-04T19:53:41.174Z,62.80
2022-12-04T19:56:14.277Z,62.60
2022-12-04T19:58:41.224Z,62.60
2022-12-04T20:01:11.458Z,62.60
2022-12-04T20:03:38.487Z,62.50
2022-12-04T20:06:07.244Z,62.60
2022-12-04T20:08:34.567Z,62.60
2022-12-04T20:11:15.470Z,62.70
2022-12-04T20:13:43.796Z,62.70
2022-12-04T20:16:13.085Z,62.70
2022-12-04T20:18:41.305Z,62.90
2022-12-04T20:21:11.939Z,63.20
2022-12-04T20:23:38.526Z,63.20
2022-12-04T20:26:07.535Z,63.00
2022-12-04T20:28:34.203Z,63.20
2022-12-04T20:31:01.201Z,63.00
2022-12-04T20:33:27.922Z,63.00
2022-12-04T20:35:55.428Z,62.90
2022-12-04T20:38:22.122Z,63.10
2022-12-04T20:40:48.826Z,62.90
2022-12-04T20:43:15.467Z,63.30
2022-12-04T20:45:42.124Z,62.90
2022-12-04T20:48:08.845Z,63.00
2022-12-04T20:50:35.480Z,62.90
2022-12-04T20:53:02.074Z,63.00
2022-12-04T20:55:28.715Z,63.00
2022-12-04T20:57:57.263Z,63.00
2022-12-04T21:00:24.128Z,63.00
2022-12-04T21:02:50.888Z,62.90
2022-12-04T21:05:17.556Z,62.90
2022-12-04T21:07:44.147Z,62.90
2022-12-04T21:10:11.056Z,62.90
2022-12-04T21:12:56.399Z,63.40
2022-12-04T21:15:41.347Z,63.00
2022-12-04T21:18:08.016Z,63.00
2022-12-04T21:20:34.704Z,63.00
2022-12-04T21:23:01.301Z,63.60
2022-12-04T21:25:28.030Z,63.00
2022-12-04T21:27:54.801Z,63.00
2022-12-04T21:30:21.459Z,62.90
2022-12-04T21:32:48.123Z,62.90
2022-12-04T21:35:14.775Z,63.00
2022-12-04T21:37:41.405Z,63.00
2022-12-04T21:40:08.693Z,63.10
2022-12-04T21:42:35.394Z,62.80
2022-12-04T21:45:04.387Z,62.70
2022-12-04T21:47:31.212Z,62.80
2022-12-04T21:49:58.407Z,62.80
2022-12-04T21:52:25.733Z,62.80
2022-12-04T21:54:53.522Z,62.70
2022-12-04T21:57:20.662Z,62.80
2022-12-04T21:59:47.818Z,62.80
2022-12-04T22:02:15.332Z,62.80
2022-12-04T22:04:42.554Z,62.80
2022-12-04T22:07:09.366Z,62.70
2022-12-04T22:09:37.350Z,62.80
2022-12-04T22:12:20.219Z,62.70
2022-12-04T22:14:51.198Z,62.80
2022-12-04T22:17:17.879Z,62.70
2022-12-04T22:19:44.531Z,62.80
2022-12-04T22:22:11.260Z,62.80
2022-12-04T22:24:37.825Z,62.80
2022-12-04T22:27:04.379Z,62.80
2022-12-04T22:32:18.305Z,62.20
2022-12-04T22:34:44.967Z,62.70
2022-12-04T22:37:11.714Z,62.70
2022-12-04T22:39:38.396Z,62.70
2022-12-04T22:42:05.026Z,62.70
2022-12-04T22:44:31.591Z,62.80
2022-12-04T22:46:58.286Z,62.70
2022-12-04T22:49:24.975Z,62.70
2022-12-04T22:51:51.547Z,62.80
2022-12-04T22:54:18.153Z,62.80
2022-12-04T22:56:44.779Z,62.70
2022-12-04T22:59:11.469Z,62.70
2022-12-04T23:01:38.108Z,62.10
2022-12-04T23:04:05.411Z,62.70
2022-12-04T23:06:33.914Z,62.70
2022-12-04T23:09:04.732Z,62.70
2022-12-04T23:11:31.576Z,62.70
2022-12-04T23:14:03.280Z,62.80
2022-12-04T23:16:31.895Z,62.70
2022-12-04T23:18:59.116Z,62.70
2022-12-04T23:21:26.699Z,62.10
2022-12-04T23:23:54.453Z,62.70
2022-12-04T23:26:24.160Z,62.60
2022-12-04T23:28:51.280Z,62.70
2022-12-04T23:31:18.759Z,62.70
2022-12-04T23:33:45.475Z,62.60
2022-12-04T23:36:12.975Z,62.50
2022-12-04T23:38:41.519Z,62.50
2022-12-04T23:41:13.060Z,61.90
2022-12-04T23:43:40.682Z,62.50
2022-12-04T23:46:11.321Z,62.40
2022-12-04T23:48:39.746Z,62.40
2022-12-04T23:51:07.374Z,62.30
2022-12-04T23:53:34.618Z,62.30
2022-12-04T23:56:09.688Z,62.30
2022-12-04T23:58:37.026Z,62.20
